Time;durP1;ratioP1;P1;durP2;ratioP2;P2;SDS_P1;SDS_P2;PMS_P1;PMS_P2;Temp;Humidity;BMP_temperature;BMP_pressure;BME280_temperature;BME280_humidity;BME280_pressure;Samples;Min_cycle;Max_cycle;Signal;HPM_P1;HPM_P2
2021/05/10 00:00:49;;;;;;;7.00;5.80;;;14.10;99.90;;;;;;5030453;28;20445;-83
2021/05/10 00:03:14;;;;;;;9.05;6.70;;;14.00;99.90;;;;;;5030991;28;20386;-83
2021/05/10 00:05:40;;;;;;;9.63;7.18;;;14.10;99.90;;;;;;5029099;28;20056;-83
2021/05/10 00:08:07;;;;;;;9.10;7.60;;;14.00;99.90;;;;;;5029542;28;20080;-83
2021/05/10 00:10:34;;;;;;;14.10;9.55;;;14.00;99.90;;;;;;5031445;28;20033;-83
2021/05/10 00:12:59;;;;;;;8.93;7.55;;;14.10;99.90;;;;;;5031683;28;20048;-83
2021/05/10 00:15:26;;;;;;;11.45;7.90;;;14.10;99.90;;;;;;5031138;28;20038;-84
2021/05/10 00:17:53;;;;;;;13.00;8.68;;;14.10;99.90;;;;;;5031678;28;20022;-84
2021/05/10 00:20:19;;;;;;;9.15;7.88;;;14.10;99.90;;;;;;5030990;28;20029;-83
2021/05/10 00:22:44;;;;;;;7.60;6.80;;;14.10;99.90;;;;;;5029927;28;20022;-83
2021/05/10 00:25:11;;;;;;;8.05;7.25;;;14.20;99.90;;;;;;5030961;28;20363;-84
2021/05/10 00:27:36;;;;;;;7.93;6.35;;;14.00;99.90;;;;;;5031455;28;20443;-84
2021/05/10 00:30:04;;;;;;;7.85;6.75;;;13.90;99.90;;;;;;5031674;28;20033;-84
2021/05/10 00:32:29;;;;;;;10.65;8.40;;;13.90;99.90;;;;;;5030792;28;20051;-83
2021/05/10 00:34:55;;;;;;;10.27;7.25;;;13.70;99.90;;;;;;5028705;28;20116;-83
2021/05/10 00:37:20;;;;;;;10.38;8.15;;;13.80;99.90;;;;;;5029463;28;20025;-83
2021/05/10 00:39:46;;;;;;;10.63;8.35;;;13.80;99.90;;;;;;5029713;28;20018;-84
2021/05/10 00:42:11;;;;;;;15.38;8.60;;;13.80;99.90;;;;;;5030318;28;20030;-83
2021/05/10 00:44:37;;;;;;;10.80;8.07;;;13.80;99.90;;;;;;5030550;28;20036;-84
2021/05/10 00:47:02;;;;;;;10.68;8.73;;;13.80;99.90;;;;;;5030452;28;20033;-83
2021/05/10 00:49:28;;;;;;;13.45;8.82;;;13.80;99.90;;;;;;5030280;28;20126;-84
2021/05/10 00:51:53;;;;;;;11.88;9.15;;;13.80;99.90;;;;;;5029394;28;20556;-83
2021/05/10 00:54:19;;;;;;;14.65;9.35;;;13.90;99.90;;;;;;5029782;28;20029;-83
2021/05/10 00:56:45;;;;;;;12.15;10.10;;;13.80;99.90;;;;;;5030070;28;20100;-83
2021/05/10 00:59:11;;;;;;;11.57;9.20;;;13.90;99.90;;;;;;5030631;28;20013;-84
2021/05/10 01:01:36;;;;;;;12.65;9.20;;;13.90;99.90;;;;;;5033868;28;20095;-83
2021/05/10 01:04:02;;;;;;;11.23;8.80;;;13.90;99.90;;;;;;5033438;28;20035;-83
2021/05/10 01:06:28;;;;;;;10.65;8.43;;;14.00;99.90;;;;;;5033094;28;20485;-83
2021/05/10 01:08:53;;;;;;;15.70;11.43;;;14.00;99.90;;;;;;5031888;28;20061;-84
2021/05/10 01:11:19;;;;;;;24.50;11.70;;;14.10;99.90;;;;;;5034016;28;20030;-85
2021/05/10 01:13:45;;;;;;;15.75;11.55;;;14.10;99.90;;;;;;5034095;28;20061;-84
2021/05/10 01:16:11;;;;;;;11.95;9.27;;;14.10;99.90;;;;;;5034056;28;20022;-83
2021/05/10 01:18:37;;;;;;;11.82;9.55;;;14.10;99.90;;;;;;5032466;28;20029;-84
2021/05/10 01:21:03;;;;;;;12.45;9.90;;;14.10;99.90;;;;;;5031797;28;20032;-84
2021/05/10 01:23:29;;;;;;;21.23;12.52;;;14.30;99.90;;;;;;5032675;28;20037;-83
2021/05/10 01:25:57;;;;;;;28.50;16.27;;;14.30;99.90;;;;;;5034018;28;20025;-83
2021/05/10 01:28:22;;;;;;;60.33;20.92;;;14.60;99.90;;;;;;5033523;28;20044;-82
2021/05/10 01:30:49;;;;;;;37.17;18.65;;;15.10;99.90;;;;;;5015911;28;20033;-84
2021/05/10 01:33:15;;;;;;;35.17;17.48;;;15.40;99.90;;;;;;5032480;28;20029;-83
2021/05/10 01:35:45;;;;;;;20.13;13.48;;;15.50;99.90;;;;;;5031242;28;20132;-83
2021/05/10 01:38:11;;;;;;;19.52;11.52;;;15.40;99.90;;;;;;5033454;28;20040;-84
2021/05/10 01:40:37;;;;;;;18.17;11.00;;;15.40;99.90;;;;;;5034634;28;20029;-85
2021/05/10 01:43:03;;;;;;;17.88;8.90;;;15.40;99.90;;;;;;5033171;28;20037;-86
2021/05/10 01:45:29;;;;;;;11.32;8.35;;;15.30;99.90;;;;;;5031868;28;20026;-85
2021/05/10 01:48:07;;;;;;;11.43;8.20;;;15.20;99.90;;;;;;5033266;28;20030;-84
2021/05/10 01:50:34;;;;;;;14.13;8.65;;;15.20;99.90;;;;;;5032649;28;20037;-84
2021/05/10 01:53:00;;;;;;;14.27;8.65;;;15.20;99.90;;;;;;5032287;28;20026;-85
2021/05/10 01:55:26;;;;;;;11.25;7.88;;;15.30;99.90;;;;;;5032365;28;20116;-85
2021/05/10 01:57:55;;;;;;;15.68;7.82;;;15.10;99.90;;;;;;5033835;28;20733;-84
2021/05/10 02:00:24;;;;;;;13.82;6.95;;;15.00;99.90;;;;;;5034216;28;20033;-85
2021/05/10 02:02:49;;;;;;;17.45;8.32;;;14.90;99.90;;;;;;5012953;28;20026;-84
2021/05/10 02:05:22;;;;;;;17.45;11.15;;;15.00;99.90;;;;;;5037428;28;20033;-85
2021/05/10 02:07:50;;;;;;;19.00;12.77;;;15.00;99.90;;;;;;5015453;28;20030;-84
2021/05/10 02:10:20;;;;;;;22.70;15.25;;;14.90;99.90;;;;;;5033194;28;20475;-84
2021/05/10 02:12:56;;;;;;;40.42;23.98;;;14.90;99.90;;;;;;5031358;28;20048;-84
2021/05/10 02:15:23;;;;;;;41.55;24.92;;;15.00;99.90;;;;;;5031797;28;20040;-83
2021/05/10 02:17:49;;;;;;;43.30;26.63;;;14.80;99.90;;;;;;5012724;28;20044;-84
2021/05/10 02:20:16;;;;;;;46.97;25.08;;;14.80;99.90;;;;;;5031586;28;20030;-84
2021/05/10 02:22:55;;;;;;;44.22;27.50;;;14.80;99.90;;;;;;5029682;28;20049;-83
2021/05/10 02:25:23;;;;;;;52.92;26.58;;;14.70;99.90;;;;;;5031638;28;20013;-83
2021/05/10 02:27:49;;;;;;;43.22;29.05;;;14.50;99.90;;;;;;5032135;28;20033;-83
2021/05/10 02:30:15;;;;;;;52.50;27.67;;;14.50;99.90;;;;;;5032234;28;20415;-84
2021/05/10 02:32:42;;;;;;;38.70;26.23;;;14.40;99.90;;;;;;5032126;28;20029;-84
2021/05/10 02:35:08;;;;;;;45.47;27.80;;;14.40;99.90;;;;;;5031457;28;20117;-84
2021/05/10 02:37:34;;;;;;;44.15;26.95;;;14.30;99.90;;;;;;5029399;28;20394;-84
2021/05/10 02:39:59;;;;;;;45.55;28.70;;;14.20;99.90;;;;;;5032158;28;20024;-84
2021/05/10 02:42:25;;;;;;;44.55;27.85;;;14.20;99.90;;;;;;5033206;28;20398;-84
2021/05/10 02:44:51;;;;;;;55.35;30.13;;;14.10;99.90;;;;;;5031047;28;20033;-83
2021/05/10 02:47:17;;;;;;;46.45;27.13;;;14.10;99.90;;;;;;5031989;28;20486;-84
2021/05/10 02:49:42;;;;;;;52.13;29.30;;;14.10;99.90;;;;;;5031287;28;20037;-84
2021/05/10 02:52:08;;;;;;;49.85;28.75;;;14.20;99.90;;;;;;5031351;28;20055;-83
2021/05/10 02:54:34;;;;;;;43.20;27.83;;;14.10;99.90;;;;;;5031677;28;20056;-84
2021/05/10 02:56:59;;;;;;;49.17;30.10;;;14.00;99.90;;;;;;5031575;28;20066;-84
2021/05/10 02:59:25;;;;;;;33.78;24.33;;;13.90;99.90;;;;;;5032925;28;20018;-84
2021/05/10 03:01:50;;;;;;;36.92;22.77;;;13.80;99.90;;;;;;5033020;28;20025;-84
2021/05/10 03:04:16;;;;;;;36.53;26.58;;;13.70;99.90;;;;;;5030025;28;20036;-83
2021/05/10 03:06:41;;;;;;;30.77;23.35;;;13.70;99.90;;;;;;5030971;28;20052;-84
2021/05/10 03:09:07;;;;;;;33.20;21.30;;;13.60;99.90;;;;;;5030506;28;20409;-84
2021/05/10 03:11:32;;;;;;;32.35;18.77;;;13.50;99.90;;;;;;5031388;28;20120;-84
2021/05/10 03:13:58;;;;;;;32.45;21.92;;;13.50;99.90;;;;;;5032141;28;20549;-83
2021/05/10 03:16:23;;;;;;;31.15;23.20;;;13.50;99.90;;;;;;5031357;28;20025;-84
2021/05/10 03:18:49;;;;;;;33.95;21.80;;;13.40;99.90;;;;;;5030677;28;20025;-84
2021/05/10 03:21:15;;;;;;;26.30;19.45;;;13.50;99.90;;;;;;5031007;28;20017;-84
2021/05/10 03:23:40;;;;;;;29.00;18.83;;;13.30;99.90;;;;;;5029855;28;20033;-84
2021/05/10 03:26:06;;;;;;;24.88;18.70;;;13.40;99.90;;;;;;5032429;28;20087;-84
2021/05/10 03:28:31;;;;;;;27.77;18.95;;;13.40;99.90;;;;;;5031283;28;20532;-84
2021/05/10 03:30:57;;;;;;;30.70;21.17;;;13.30;99.90;;;;;;5030307;28;20071;-83
2021/05/10 03:33:22;;;;;;;25.55;18.95;;;13.30;99.90;;;;;;5032534;28;20025;-84
2021/05/10 03:35:48;;;;;;;26.75;19.30;;;13.30;99.90;;;;;;5025796;28;20014;-84
2021/05/10 03:38:14;;;;;;;28.25;19.05;;;13.30;99.90;;;;;;5026534;28;20436;-84
2021/05/10 03:40:39;;;;;;;22.75;17.40;;;13.20;99.90;;;;;;5030918;28;20022;-84
2021/05/10 03:43:05;;;;;;;26.50;19.98;;;13.20;99.90;;;;;;5031090;28;20136;-84
2021/05/10 03:45:30;;;;;;;25.08;18.90;;;13.30;99.90;;;;;;5031718;28;20036;-84
2021/05/10 03:47:56;;;;;;;38.58;25.98;;;13.20;99.90;;;;;;5031285;28;20492;-84
2021/05/10 03:50:22;;;;;;;37.53;22.98;;;13.20;99.90;;;;;;5030235;28;20034;-84
2021/05/10 03:52:50;;;;;;;38.60;25.02;;;13.20;99.90;;;;;;5027043;28;20663;-84
2021/05/10 03:55:18;;;;;;;48.80;30.65;;;13.30;99.90;;;;;;5031249;28;20021;-83
2021/05/10 03:57:45;;;;;;;55.20;31.17;;;13.30;99.90;;;;;;5030731;28;20489;-84
2021/05/10 04:00:12;;;;;;;51.25;31.17;;;13.40;99.90;;;;;;5030792;28;20390;-84
2021/05/10 04:02:39;;;;;;;49.47;31.65;;;13.40;99.90;;;;;;5030954;28;20037;-84
2021/05/10 04:10:39;;;;;;;52.25;32.95;;;13.50;99.90;;;;;;5030817;28;20500;-84
2021/05/10 04:15:49;;;;;;;46.55;32.85;;;13.60;99.90;;;;;;5031398;28;20445;-83
2021/05/10 04:18:15;;;;;;;54.65;34.83;;;13.70;99.90;;;;;;5030596;28;20032;-84
2021/05/10 04:20:41;;;;;;;50.53;30.73;;;13.70;99.90;;;;;;5031053;28;20021;-84
2021/05/10 04:23:07;;;;;;;56.20;32.95;;;13.70;99.90;;;;;;5029567;28;20018;-84
2021/05/10 04:25:33;;;;;;;47.13;29.10;;;13.70;99.90;;;;;;5029657;28;20072;-84
2021/05/10 04:27:59;;;;;;;54.30;30.98;;;13.80;99.90;;;;;;5030612;28;20472;-84
2021/05/10 04:30:25;;;;;;;61.05;32.70;;;13.80;99.90;;;;;;5031702;28;20087;-84
2021/05/10 04:32:50;;;;;;;49.47;30.40;;;13.80;99.90;;;;;;5030379;28;20124;-84
2021/05/10 04:35:18;;;;;;;59.70;31.55;;;13.80;99.90;;;;;;5032212;28;20026;-84
2021/05/10 04:37:44;;;;;;;48.13;30.65;;;13.70;99.90;;;;;;5031774;28;20485;-84
2021/05/10 04:40:10;;;;;;;51.78;31.25;;;13.70;99.90;;;;;;5034213;28;20024;-84
2021/05/10 04:42:36;;;;;;;46.15;29.88;;;13.80;99.90;;;;;;5034608;28;20074;-84
2021/05/10 04:45:01;;;;;;;48.90;31.10;;;13.70;99.90;;;;;;5033597;28;20026;-84
2021/05/10 04:47:36;;;;;;;43.35;29.00;;;13.80;99.90;;;;;;5032437;28;20228;-84
2021/05/10 04:50:06;;;;;;;35.05;24.05;;;13.90;99.90;;;;;;5034408;28;20087;-84
2021/05/10 04:52:32;;;;;;;35.17;24.42;;;14.00;99.90;;;;;;5032723;28;20493;-84
2021/05/10 04:54:58;;;;;;;33.67;23.52;;;14.10;99.90;;;;;;5033108;28;20025;-84
2021/05/10 04:57:24;;;;;;;39.08;25.85;;;14.20;99.90;;;;;;5034068;28;20029;-84
2021/05/10 04:59:49;;;;;;;44.20;26.65;;;14.30;99.90;;;;;;5033743;28;20029;-83
2021/05/10 05:02:15;;;;;;;36.72;25.60;;;14.40;99.90;;;;;;5033908;28;20026;-84
2021/05/10 05:04:40;;;;;;;41.38;26.70;;;14.40;99.90;;;;;;5032503;28;20098;-83
2021/05/10 05:07:06;;;;;;;45.35;27.60;;;14.50;99.90;;;;;;5033583;28;20025;-84
2021/05/10 05:09:31;;;;;;;33.67;23.27;;;14.60;99.90;;;;;;5032553;28;20057;-84
2021/05/10 05:11:57;;;;;;;25.83;19.40;;;14.70;99.90;;;;;;5035093;28;20448;-84
2021/05/10 05:14:23;;;;;;;31.05;19.95;;;14.80;99.90;;;;;;5032954;28;20116;-83
2021/05/10 05:16:48;;;;;;;40.83;28.00;;;14.90;99.90;;;;;;5033591;28;20547;-84
2021/05/10 05:19:14;;;;;;;41.65;28.50;;;15.00;99.90;;;;;;5032943;28;20033;-84
2021/05/10 05:21:39;;;;;;;39.55;26.88;;;15.00;99.90;;;;;;5034027;28;20064;-84
2021/05/10 05:24:05;;;;;;;37.25;23.55;;;15.10;99.90;;;;;;5033011;28;20030;-83
2021/05/10 05:26:30;;;;;;;41.63;27.13;;;15.20;99.90;;;;;;5033408;28;20021;-84
2021/05/10 05:28:56;;;;;;;42.38;26.40;;;15.30;99.90;;;;;;5033404;28;20025;-83
2021/05/10 05:31:23;;;;;;;41.58;26.55;;;15.30;99.90;;;;;;5032450;28;20043;-84
2021/05/10 05:33:48;;;;;;;33.97;25.98;;;15.30;99.90;;;;;;5031565;28;20048;-82
2021/05/10 05:36:14;;;;;;;44.55;25.73;;;15.40;99.90;;;;;;5033703;28;20029;-84
2021/05/10 05:38:41;;;;;;;36.47;25.73;;;15.40;99.90;;;;;;5032007;28;20513;-81
2021/05/10 05:41:10;;;;;;;39.10;24.95;;;15.40;99.90;;;;;;5034255;28;20509;-81
2021/05/10 05:43:36;;;;;;;37.50;25.80;;;15.50;99.90;;;;;;5032668;28;20609;-81
2021/05/10 05:46:03;;;;;;;32.28;22.15;;;15.50;99.90;;;;;;5031776;28;20706;-82
2021/05/10 05:48:28;;;;;;;38.45;24.52;;;15.60;99.90;;;;;;5031456;28;20064;-82
2021/05/10 05:50:54;;;;;;;31.50;22.65;;;15.80;99.90;;;;;;5032952;28;20021;-81
2021/05/10 05:53:20;;;;;;;30.75;20.10;;;15.70;99.90;;;;;;5032285;28;20033;-82
2021/05/10 05:55:45;;;;;;;24.73;19.30;;;15.90;99.90;;;;;;5033379;28;20567;-84
2021/05/10 05:58:12;;;;;;;24.10;18.40;;;16.00;99.90;;;;;;5032585;28;20025;-83
2021/05/10 06:00:38;;;;;;;26.40;18.60;;;16.10;99.90;;;;;;5032461;28;20030;-83
2021/05/10 06:03:04;;;;;;;23.05;18.30;;;16.30;99.90;;;;;;5032121;28;20026;-80
2021/05/10 06:05:29;;;;;;;27.73;18.90;;;16.40;99.90;;;;;;5030701;28;20033;-80
2021/05/10 06:07:55;;;;;;;26.67;16.63;;;16.40;99.90;;;;;;5031483;28;20083;-80
2021/05/10 06:10:25;;;;;;;21.42;14.55;;;16.60;99.90;;;;;;5033430;28;20474;-80
2021/05/10 06:12:52;;;;;;;19.02;14.98;;;16.80;99.90;;;;;;5032236;28;20030;-79
2021/05/10 06:15:20;;;;;;;15.77;12.35;;;16.90;99.90;;;;;;5031735;28;20375;-81
2021/05/10 06:17:46;;;;;;;20.23;11.60;;;16.70;99.90;;;;;;5033392;28;20040;-80
2021/05/10 06:20:12;;;;;;;16.23;9.80;;;16.70;99.90;;;;;;5031212;28;20126;-81
2021/05/10 06:22:39;;;;;;;17.48;10.25;;;16.60;99.90;;;;;;5029679;28;20397;-80
2021/05/10 06:25:07;;;;;;;12.18;9.35;;;16.70;99.90;;;;;;5031425;28;20013;-81
2021/05/10 06:27:33;;;;;;;11.57;8.68;;;16.70;99.90;;;;;;5033185;28;20034;-81
2021/05/10 06:29:59;;;;;;;10.82;8.55;;;16.80;99.90;;;;;;5033227;28;20052;-81
2021/05/10 06:32:24;;;;;;;17.98;8.13;;;16.90;99.90;;;;;;5032530;28;20061;-81
2021/05/10 06:34:50;;;;;;;9.75;6.68;;;17.00;99.90;;;;;;5032611;28;20128;-80
2021/05/10 06:37:19;;;;;;;8.82;6.78;;;17.00;99.90;;;;;;5032057;28;20029;-81
2021/05/10 06:39:48;;;;;;;14.02;6.85;;;17.10;99.90;;;;;;5032129;28;20496;-81
2021/05/10 06:42:15;;;;;;;11.15;6.45;;;16.90;99.90;;;;;;5033114;28;20028;-81
2021/05/10 06:44:41;;;;;;;9.90;5.10;;;17.10;99.90;;;;;;5032188;28;20079;-81
2021/05/10 06:47:07;;;;;;;8.85;5.25;;;17.10;99.90;;;;;;5032931;28;20108;-81
2021/05/10 06:49:33;;;;;;;11.65;4.65;;;17.20;99.90;;;;;;5031678;28;20203;-81
2021/05/10 06:51:59;;;;;;;9.82;4.38;;;17.20;99.90;;;;;;5030107;28;20053;-82
2021/05/10 06:54:25;;;;;;;5.50;4.10;;;17.30;99.90;;;;;;5029636;28;20115;-81
2021/05/10 06:56:51;;;;;;;10.00;4.55;;;17.40;99.90;;;;;;5031496;28;20033;-82
2021/05/10 06:59:18;;;;;;;8.38;4.20;;;17.50;99.90;;;;;;5032739;28;20017;-82
2021/05/10 07:01:43;;;;;;;9.60;3.60;;;17.50;99.90;;;;;;5031297;28;20057;-82
2021/05/10 07:04:09;;;;;;;5.50;3.67;;;17.60;99.90;;;;;;5030931;28;20108;-81
2021/05/10 07:06:34;;;;;;;9.85;3.65;;;17.60;99.90;;;;;;5030668;28;20033;-82
2021/05/10 07:09:00;;;;;;;6.85;4.18;;;17.60;99.90;;;;;;5031482;28;20037;-82
2021/05/10 07:11:25;;;;;;;7.95;4.20;;;17.80;99.90;;;;;;5031151;28;20031;-81
2021/05/10 07:13:51;;;;;;;7.65;4.38;;;17.80;99.90;;;;;;5031367;28;20112;-82
2021/05/10 07:16:16;;;;;;;6.72;3.72;;;17.90;99.90;;;;;;5031309;28;20025;-82
2021/05/10 07:18:42;;;;;;;13.23;3.50;;;17.80;99.90;;;;;;5032442;28;20049;-82
2021/05/10 07:21:07;;;;;;;5.47;3.25;;;18.00;99.90;;;;;;5031508;28;20482;-82
2021/05/10 07:23:35;;;;;;;9.82;2.70;;;18.20;99.90;;;;;;5031221;28;20513;-82
2021/05/10 07:26:01;;;;;;;9.02;3.30;;;18.30;99.90;;;;;;5030215;28;20029;-82
2021/05/10 07:28:26;;;;;;;7.55;3.00;;;18.30;99.90;;;;;;5032331;28;20505;-82
2021/05/10 07:30:52;;;;;;;10.95;3.50;;;18.40;99.90;;;;;;5014461;28;20040;-82
2021/05/10 07:33:17;;;;;;;11.80;2.83;;;18.50;99.90;;;;;;5032178;28;20036;-82
2021/05/10 07:35:43;;;;;;;6.28;3.45;;;18.60;99.90;;;;;;5022458;28;20037;-81
2021/05/10 07:38:09;;;;;;;9.63;3.22;;;18.80;99.90;;;;;;5028923;28;20078;-82
2021/05/10 07:40:34;;;;;;;12.50;2.53;;;18.90;99.90;;;;;;5030515;28;20370;-82
2021/05/10 07:43:00;;;;;;;8.07;2.33;;;19.20;99.90;;;;;;5030719;28;20056;-82
2021/05/10 07:45:27;;;;;;;7.72;2.35;;;19.60;99.90;;;;;;5029996;28;20021;-83
2021/05/10 07:47:53;;;;;;;7.75;2.20;;;19.80;99.90;;;;;;5030452;28;20032;-86
2021/05/10 07:50:25;;;;;;;9.25;2.10;;;20.00;99.90;;;;;;5028587;28;20029;-86
2021/05/10 07:52:51;;;;;;;4.10;2.15;;;20.20;99.90;;;;;;5031155;28;20394;-87
2021/05/10 07:55:18;;;;;;;7.60;2.10;;;20.20;99.90;;;;;;5031351;28;20097;-87
2021/05/10 07:57:44;;;;;;;4.65;2.10;;;20.20;99.90;;;;;;5030660;28;20025;-86
2021/05/10 08:00:15;;;;;;;4.30;2.05;;;20.20;99.90;;;;;;5031792;28;20378;-86
2021/05/10 08:02:43;;;;;;;9.48;2.88;;;20.50;99.90;;;;;;5030855;28;20026;-86
2021/05/10 08:05:09;;;;;;;6.68;1.80;;;20.70;99.90;;;;;;5029082;28;20021;-87
2021/05/10 08:07:35;;;;;;;9.35;2.00;;;20.80;99.90;;;;;;5028189;28;20030;-87
2021/05/10 08:10:00;;;;;;;8.35;2.17;;;21.00;99.90;;;;;;5029668;28;20116;-87
2021/05/10 08:12:26;;;;;;;4.22;1.85;;;21.00;99.90;;;;;;5030575;28;20021;-87
2021/05/10 08:14:52;;;;;;;8.43;1.80;;;21.40;99.90;;;;;;5029895;28;20036;-87
2021/05/10 08:17:19;;;;;;;11.05;2.28;;;21.80;99.90;;;;;;5030413;28;20029;-88
2021/05/10 08:19:45;;;;;;;6.97;1.90;;;22.00;99.90;;;;;;5030162;28;20143;-87
2021/05/10 08:22:11;;;;;;;5.10;1.55;;;21.70;99.90;;;;;;5030852;28;20119;-87
2021/05/10 08:24:37;;;;;;;6.93;1.60;;;22.00;99.90;;;;;;5029282;28;20529;-88
2021/05/10 08:27:02;;;;;;;5.53;1.45;;;22.10;99.90;;;;;;5030645;28;20033;-88
2021/05/10 08:29:28;;;;;;;7.25;2.03;;;22.10;99.90;;;;;;5032053;28;20026;-87
2021/05/10 08:31:55;;;;;;;4.43;2.08;;;22.00;99.90;;;;;;5030706;28;20028;-86
2021/05/10 08:34:25;;;;;;;4.53;1.35;;;22.00;99.90;;;;;;5029113;28;20037;-88
2021/05/10 08:36:50;;;;;;;5.80;1.73;;;21.90;99.90;;;;;;5031060;28;20063;-87
2021/05/10 08:39:16;;;;;;;4.53;1.67;;;22.00;99.90;;;;;;5030897;28;20080;-88
2021/05/10 08:41:41;;;;;;;7.10;1.88;;;22.20;99.90;;;;;;5031824;28;20017;-88
2021/05/10 08:44:09;;;;;;;9.48;1.73;;;22.20;99.90;;;;;;5031109;28;20018;-87
2021/05/10 08:46:41;;;;;;;8.93;2.05;;;22.60;99.90;;;;;;5030948;28;20048;-88
2021/05/10 08:49:09;;;;;;;8.15;1.80;;;22.80;99.90;;;;;;5031189;28;20033;-88
2021/05/10 08:51:37;;;;;;;4.20;1.50;;;22.90;99.90;;;;;;5029918;28;20068;-88
2021/05/10 08:54:03;;;;;;;5.25;2.13;;;22.70;99.90;;;;;;5029590;28;20397;-88
2021/05/10 08:56:32;;;;;;;7.90;1.60;;;22.40;99.90;;;;;;5030091;28;20025;-87
2021/05/10 08:58:58;;;;;;;6.13;1.90;;;22.40;99.90;;;;;;5031711;28;20019;-88
2021/05/10 09:01:23;;;;;;;4.63;1.42;;;22.30;99.90;;;;;;5030855;28;20029;-88
2021/05/10 09:03:53;;;;;;;2.05;1.40;;;22.20;99.90;;;;;;5029765;28;20029;-87
2021/05/10 09:06:29;;;;;;;8.63;1.60;;;22.30;99.90;;;;;;5028861;28;20025;-87
2021/05/10 09:09:08;;;;;;;2.60;1.50;;;22.40;99.90;;;;;;5030866;28;20029;-87
2021/05/10 09:11:34;;;;;;;5.10;1.30;;;22.50;99.90;;;;;;5032181;28;20045;-88
2021/05/10 09:14:02;;;;;;;9.70;1.60;;;22.50;99.90;;;;;;5029769;28;20036;-88
2021/05/10 09:16:28;;;;;;;9.23;1.83;;;22.40;99.90;;;;;;5031668;28;20021;-88
2021/05/10 09:18:56;;;;;;;9.02;1.73;;;22.60;99.90;;;;;;5029485;28;20418;-88
2021/05/10 09:21:29;;;;;;;6.13;1.80;;;22.50;99.90;;;;;;5033247;28;20076;-88
2021/05/10 09:23:57;;;;;;;10.07;1.77;;;22.50;99.90;;;;;;5031748;28;20043;-84
2021/05/10 09:26:37;;;;;;;8.02;2.53;;;22.10;99.90;;;;;;5033271;28;20025;-88
2021/05/10 09:29:02;;;;;;;6.95;3.50;;;22.00;99.90;;;;;;5035548;28;20106;-86
2021/05/10 09:31:29;;;;;;;20.70;6.88;;;21.80;99.90;;;;;;5033310;28;20056;-87
2021/05/10 09:34:14;;;;;;;68.32;22.88;;;22.00;99.90;;;;;;5032967;28;20605;-86
2021/05/10 09:36:40;;;;;;;4.70;2.20;;;22.10;99.90;;;;;;5032942;28;20494;-87
2021/05/10 09:39:26;;;;;;;4.22;1.40;;;22.40;99.90;;;;;;5031893;28;20026;-87
2021/05/10 09:42:03;;;;;;;6.13;1.42;;;22.50;99.90;;;;;;5013779;28;20081;-86
2021/05/10 09:44:42;;;;;;;5.65;2.15;;;22.30;99.90;;;;;;5022038;28;20067;-84
2021/05/10 09:47:08;;;;;;;4.53;1.88;;;22.10;99.90;;;;;;5034476;28;20032;-82
2021/05/10 09:49:44;;;;;;;4.72;1.80;;;22.00;99.90;;;;;;5032878;28;20041;-82
2021/05/10 09:52:22;;;;;;;7.65;2.47;;;22.00;99.90;;;;;;5029613;28;20021;-82
2021/05/10 09:54:57;;;;;;;4.65;1.83;;;21.70;99.90;;;;;;5032287;28;20053;-82
2021/05/10 09:57:23;;;;;;;7.55;1.98;;;21.70;99.90;;;;;;5032771;28;20026;-83
2021/05/10 10:00:17;;;;;;;4.88;1.50;;;21.70;99.90;;;;;;5032611;28;20017;-83
2021/05/10 10:02:43;;;;;;;4.85;1.60;;;21.50;99.90;;;;;;5032888;28;20014;-82
2021/05/10 10:05:09;;;;;;;7.88;2.03;;;21.40;99.90;;;;;;5031174;28;20035;-82
2021/05/10 10:07:42;;;;;;;5.30;1.70;;;21.30;99.90;;;;;;5031871;28;20556;-82
2021/05/10 10:10:09;;;;;;;8.32;2.55;;;21.20;99.90;;;;;;5030717;28;20017;-81
2021/05/10 10:12:35;;;;;;;5.28;1.60;;;21.30;99.90;;;;;;5032412;28;20057;-82
2021/05/10 10:15:01;;;;;;;5.82;1.50;;;21.20;99.90;;;;;;5032861;28;20449;-81
2021/05/10 10:17:26;;;;;;;4.15;2.05;;;21.20;99.90;;;;;;5032318;28;20026;-83
2021/05/10 10:20:06;;;;;;;4.90;2.30;;;21.30;99.90;;;;;;5032670;28;20036;-83
2021/05/10 10:22:33;;;;;;;2.15;1.55;;;21.30;99.90;;;;;;5030729;28;20095;-83
2021/05/10 10:25:02;;;;;;;5.35;1.77;;;21.40;99.90;;;;;;5032450;28;20014;-83
2021/05/10 10:27:29;;;;;;;5.25;2.20;;;21.50;99.90;;;;;;5032384;28;20030;-83
2021/05/10 10:29:56;;;;;;;14.70;1.80;;;21.70;99.90;;;;;;5033263;28;20022;-83
2021/05/10 10:32:23;;;;;;;9.88;2.42;;;21.90;99.90;;;;;;5031702;28;20026;-83
2021/05/10 10:34:50;;;;;;;8.52;2.10;;;22.30;99.90;;;;;;5030538;28;20026;-84
2021/05/10 10:37:18;;;;;;;3.53;1.40;;;22.30;99.90;;;;;;5031552;28;20120;-89
2021/05/10 10:39:57;;;;;;;7.85;1.65;;;22.80;99.90;;;;;;5033148;28;20091;-86
2021/05/10 10:42:31;;;;;;;4.57;1.70;;;23.10;99.90;;;;;;5032929;28;20029;-87
2021/05/10 10:45:07;;;;;;;5.22;1.85;;;23.40;99.90;;;;;;5031892;28;20117;-87
2021/05/10 10:48:02;;;;;;;1.60;1.40;;;23.90;99.90;;;;;;5032840;28;20030;-88
2021/05/10 10:50:29;;;;;;;5.65;1.73;;;23.90;99.90;;;;;;5031934;28;20472;-87
2021/05/10 10:53:03;;;;;;;4.82;1.55;;;24.20;99.90;;;;;;5031356;28;20052;-87
2021/05/10 10:55:37;;;;;;;6.53;2.10;;;24.10;99.90;;;;;;5022860;28;20075;-88
2021/05/10 10:58:15;;;;;;;6.18;1.65;;;23.30;99.90;;;;;;5034464;28;20029;-85
2021/05/10 11:01:13;;;;;;;7.85;2.13;;;22.40;99.90;;;;;;5033366;28;20029;-86
2021/05/10 11:03:40;;;;;;;4.20;2.05;;;21.80;99.90;;;;;;5032116;28;20034;-86
2021/05/10 11:06:06;;;;;;;11.95;2.30;;;21.80;99.90;;;;;;5031222;28;20048;-87
2021/05/10 11:08:55;;;;;;;10.75;2.95;;;22.00;99.90;;;;;;5030450;28;20367;-87
2021/05/10 11:11:26;;;;;;;7.72;2.38;;;21.90;99.90;;;;;;5032154;28;20053;-86
2021/05/10 11:13:52;;;;;;;6.55;2.72;;;21.60;99.90;;;;;;5031581;28;20029;-87
2021/05/10 11:16:37;;;;;;;6.45;2.58;;;21.70;99.90;;;;;;5033729;28;20052;-85
2021/05/10 11:19:05;;;;;;;15.85;3.15;;;21.30;99.90;;;;;;5048511;28;20052;-86
2021/05/10 11:21:31;;;;;;;5.93;2.80;;;21.20;99.90;;;;;;5032740;28;20030;-87
2021/05/10 11:24:02;;;;;;;8.27;2.47;;;21.00;99.90;;;;;;5031079;28;20035;-86
2021/05/10 11:26:52;;;;;;;5.03;2.05;;;20.70;99.90;;;;;;5033059;28;20026;-85
2021/05/10 11:29:27;;;;;;;7.40;2.13;;;20.40;99.90;;;;;;5032700;28;20032;-88
2021/05/10 11:32:09;;;;;;;4.00;2.22;;;20.20;99.90;;;;;;5033121;28;20497;-84
2021/05/10 11:34:38;;;;;;;4.35;2.15;;;20.40;99.90;;;;;;5034530;28;20031;-88
2021/05/10 11:37:06;;;;;;;4.35;2.05;;;20.60;99.90;;;;;;5032294;28;20056;-86
2021/05/10 11:39:38;;;;;;;8.23;3.05;;;20.30;99.90;;;;;;5033483;28;20117;-88
2021/05/10 11:42:14;;;;;;;2.67;1.83;;;20.20;99.90;;;;;;5034535;28;20044;-87
2021/05/10 11:44:42;;;;;;;5.63;1.83;;;20.30;99.90;;;;;;5036070;28;20256;-87
2021/05/10 11:47:10;;;;;;;4.07;2.25;;;19.90;99.90;;;;;;5034290;28;20505;-86
2021/05/10 11:49:41;;;;;;;9.75;3.03;;;19.50;99.90;;;;;;5032561;28;20035;-84
2021/05/10 11:52:10;;;;;;;7.40;2.85;;;19.20;99.90;;;;;;5031880;28;20036;-88
2021/05/10 11:54:39;;;;;;;7.50;2.55;;;18.90;99.90;;;;;;5030614;28;20033;-88
2021/05/10 11:57:06;;;;;;;5.60;2.80;;;18.90;99.90;;;;;;5031613;28;20033;-87
2021/05/10 11:59:51;;;;;;;5.70;2.42;;;18.50;99.90;;;;;;5031166;28;20029;-87
2021/05/10 12:02:26;;;;;;;14.70;3.45;;;18.40;99.90;;;;;;5031502;28;20030;-89
2021/05/10 12:04:59;;;;;;;14.40;2.80;;;18.10;99.90;;;;;;5030735;28;20030;-89
2021/05/10 12:07:27;;;;;;;9.73;2.35;;;17.70;99.90;;;;;;5032034;28;20029;-89
2021/05/10 12:10:01;;;;;;;8.00;2.80;;;17.40;99.90;;;;;;5031548;28;20052;-88
2021/05/10 12:12:47;;;;;;;7.10;2.40;;;17.50;99.90;;;;;;5032265;28;20033;-90
2021/05/10 12:15:30;;;;;;;7.13;2.70;;;17.40;99.90;;;;;;5031521;28;20091;-90
2021/05/10 12:18:00;;;;;;;8.40;3.38;;;17.50;99.90;;;;;;5032035;28;20033;-88
2021/05/10 12:20:28;;;;;;;7.25;2.90;;;17.20;99.90;;;;;;5030350;28;20033;-89
2021/05/10 12:22:58;;;;;;;9.23;2.70;;;17.30;99.90;;;;;;5029815;28;20079;-88
2021/05/10 12:25:26;;;;;;;4.60;2.58;;;17.00;99.90;;;;;;5031406;28;20540;-91
2021/05/10 12:28:23;;;;;;;8.80;3.15;;;16.90;99.90;;;;;;5032408;28;20018;-91
2021/05/10 12:31:02;;;;;;;;;;;;;;;;;;;;;
2021/05/10 12:33:59;;;;;;;10.10;3.47;;;16.60;99.90;;;;;;5033020;28;20036;-91
2021/05/10 12:37:23;;;;;;;17.35;2.90;;;16.60;99.90;;;;;;5031258;28;20029;-90
2021/05/10 12:40:06;;;;;;;14.87;3.47;;;16.60;99.90;;;;;;5014972;28;20033;-89
2021/05/10 12:43:00;;;;;;;8.63;3.27;;;16.50;99.90;;;;;;5032388;28;20018;-88
2021/05/10 12:45:53;;;;;;;9.70;3.70;;;16.50;99.90;;;;;;5031641;28;20025;-89
2021/05/10 12:48:23;;;;;;;10.85;4.72;;;16.30;99.90;;;;;;5031602;28;20069;-88
2021/05/10 12:50:58;;;;;;;10.32;4.68;;;16.30;99.90;;;;;;5031741;28;20032;-89
2021/05/10 12:53:44;;;;;;;9.18;4.43;;;16.20;99.90;;;;;;5030473;28;20029;-84